Time;durP1;ratioP1;P1;durP2;ratioP2;P2;SDS_P1;SDS_P2;PMS_P1;PMS_P2;Temp;Humidity;BMP_temperature;BMP_pressure;BME280_temperature;BME280_humidity;BME280_pressure;Samples;Min_cycle;Max_cycle;Signal;HPM_P1;HPM_P2
2023/03/27 00:00:21;;;;;;;;;;;;;;;6.58;57.55;100049.72;4121685;28;20349;-65
2023/03/27 00:02:23;;;;;;;;;;;;;;;6.55;57.21;100053.59;4120234;28;20357;-64
2023/03/27 00:04:25;;;;;;;;;;;;;;;6.53;57.60;100050.22;4121315;28;20387;-65
2023/03/27 00:06:27;;;;;;;;;;;;;;;6.54;57.78;100054.59;4121085;28;20452;-65
2023/03/27 00:08:30;;;;;;;;;;;;;;;6.51;57.80;100067.50;4121217;28;20029;-64
2023/03/27 00:10:32;;;;;;;;;;;;;;;6.49;57.65;100068.50;4121375;28;20033;-65
2023/03/27 00:12:35;;;;;;;;;;;;;;;6.44;57.89;100073.53;4120279;28;20028;-65
2023/03/27 00:14:38;;;;;;;;;;;;;;;6.41;58.08;100073.88;4121122;28;19930;-65
2023/03/27 00:16:40;;;;;;;;;;;;;;;6.38;58.31;100074.19;4120815;28;20029;-65
2023/03/27 00:18:43;;;;;;;;;;;;;;;6.36;58.29;100078.03;4127261;28;20479;-64
2023/03/27 00:20:45;;;;;;;;;;;;;;;6.36;58.21;100073.50;4127210;28;20384;-66
2023/03/27 00:22:48;;;;;;;;;;;;;;;6.32;58.20;100080.22;4142766;28;20429;-65
2023/03/27 00:24:50;;;;;;;;;;;;;;;6.29;58.17;100085.91;4121051;28;20028;-65
2023/03/27 00:26:53;;;;;;;;;;;;;;;6.27;58.20;100091.44;4126774;28;20022;-65
2023/03/27 00:28:57;;;;;;;;;;;;;;;6.26;57.88;100097.81;4121510;28;20052;-64
2023/03/27 00:30:59;;;;;;;;;;;;;;;6.24;57.74;100101.69;4121146;28;20042;-65
2023/03/27 00:33:01;;;;;;;;;;;;;;;6.19;57.70;100104.00;4120059;28;20012;-65
2023/03/27 00:35:03;;;;;;;;;;;;;;;6.21;58.21;100112.72;4120788;28;19930;-65
2023/03/27 00:37:05;;;;;;;;;;;;;;;6.25;57.90;100109.56;4118504;28;20022;-66
2023/03/27 00:39:07;;;;;;;;;;;;;;;6.28;57.82;100117.25;4121556;28;20459;-65
2023/03/27 00:41:09;;;;;;;;;;;;;;;6.29;57.77;100120.78;4120509;28;20043;-65
2023/03/27 00:43:19;;;;;;;;;;;;;;;6.22;57.59;100117.94;4120235;28;20020;-66
2023/03/27 00:45:23;;;;;;;;;;;;;;;6.20;57.71;100117.22;4121132;28;20021;-65
2023/03/27 00:47:27;;;;;;;;;;;;;;;6.22;57.96;100119.75;4120180;28;20014;-65
2023/03/27 00:49:30;;;;;;;;;;;;;;;6.23;58.04;100118.75;4120719;28;20122;-65
2023/03/27 00:51:32;;;;;;;;;;;;;;;6.19;57.79;100120.94;4120473;28;20042;-65
2023/03/27 00:53:34;;;;;;;;;;;;;;;6.14;57.38;100123.25;4119167;28;20036;-64
2023/03/27 00:55:37;;;;;;;;;;;;;;;6.12;57.63;100131.44;4126892;28;19930;-65
2023/03/27 00:57:39;;;;;;;;;;;;;;;6.11;57.78;100135.16;4119344;28;20447;-65
2023/03/27 00:59:42;;;;;;;;;;;;;;;6.08;57.46;100135.47;4119351;28;20394;-65
2023/03/27 01:01:45;;;;;;;;;;;;;;;6.06;57.86;100142.00;4118126;28;20084;-66
2023/03/27 01:03:48;;;;;;;;;;;;;;;6.07;58.02;100141.00;4120687;28;19985;-66
2023/03/27 01:05:50;;;;;;;;;;;;;;;6.07;57.99;100135.66;4120768;28;19985;-65
2023/03/27 01:07:52;;;;;;;;;;;;;;;6.08;58.29;100131.94;4120285;28;20021;-65
2023/03/27 01:09:55;;;;;;;;;;;;;;;6.07;58.27;100135.66;4126687;28;20367;-65
2023/03/27 01:12:02;;;;;;;;;;;;;;;6.05;58.47;100143.00;4150932;28;20016;-65
2023/03/27 01:14:08;;;;;;;;;;;;;;;6.04;58.52;100149.38;4120118;28;20081;-65
2023/03/27 01:16:11;;;;;;;;;;;;;;;6.03;58.35;100147.69;4118550;28;19965;-64
2023/03/27 01:18:18;;;;;;;;;;;;;;;6.04;58.90;100146.69;4118692;28;20025;-65
2023/03/27 01:20:32;;;;;;;;;;;;;;;5.99;58.50;100147.19;4120945;28;20025;-65
2023/03/27 01:22:51;;;;;;;;;;;;;;;5.93;59.45;100145.09;4142789;28;20020;-65
2023/03/27 01:25:12;;;;;;;;;;;;;;;5.91;59.43;100144.44;4142505;28;20052;-65
2023/03/27 01:27:17;;;;;;;;;;;;;;;5.84;59.62;100151.44;4122969;28;20009;-65
2023/03/27 01:29:20;;;;;;;;;;;;;;;5.79;60.12;100149.22;4122557;28;20025;-64
2023/03/27 01:31:26;;;;;;;;;;;;;;;5.82;60.28;100158.81;4128702;28;20080;-65
2023/03/27 01:33:39;;;;;;;;;;;;;;;5.81;60.54;100157.94;4154601;28;20028;-65
2023/03/27 01:35:59;;;;;;;;;;;;;;;5.75;60.80;100164.81;4129179;28;20044;-66
2023/03/27 01:38:07;;;;;;;;;;;;;;;5.70;60.99;100185.84;4121858;28;19926;-65
2023/03/27 01:40:11;;;;;;;;;;;;;;;5.72;61.03;100191.06;4145503;28;20020;-65
2023/03/27 01:42:17;;;;;;;;;;;;;;;5.76;61.38;100189.75;4128912;28;20025;-64
2023/03/27 01:44:20;;;;;;;;;;;;;;;5.71;61.20;100187.53;4154084;28;20079;-66
2023/03/27 01:46:22;;;;;;;;;;;;;;;5.69;61.36;100194.03;4121916;28;20021;-64
2023/03/27 01:48:26;;;;;;;;;;;;;;;5.64;61.70;100202.56;4123099;28;20033;-65
2023/03/27 01:50:29;;;;;;;;;;;;;;;5.60;62.02;100199.38;4122067;28;20373;-65
2023/03/27 01:52:31;;;;;;;;;;;;;;;5.60;62.05;100196.69;4128600;28;20394;-66
2023/03/27 01:54:34;;;;;;;;;;;;;;;5.56;61.76;100205.19;4123265;28;20016;-64
2023/03/27 01:56:39;;;;;;;;;;;;;;;5.51;62.07;100205.66;4144466;28;20024;-66
2023/03/27 01:58:44;;;;;;;;;;;;;;;5.50;62.30;100206.69;4129557;28;19973;-65
2023/03/27 02:00:49;;;;;;;;;;;;;;;5.53;62.32;100205.50;4123330;28;20034;-65
2023/03/27 02:02:52;;;;;;;;;;;;;;;5.57;62.08;100209.56;4121009;28;20649;-66
2023/03/27 02:04:56;;;;;;;;;;;;;;;5.56;61.88;100213.22;4128929;28;20454;-65
2023/03/27 02:06:59;;;;;;;;;;;;;;;5.56;61.75;100208.72;4128519;28;20017;-65
2023/03/27 02:09:03;;;;;;;;;;;;;;;5.51;61.26;100210.19;4121172;28;20013;-65
2023/03/27 02:11:06;;;;;;;;;;;;;;;5.45;61.19;100218.84;4122926;28;19930;-65
2023/03/27 02:13:11;;;;;;;;;;;;;;;5.40;61.28;100228.19;4127322;28;20009;-65
2023/03/27 02:15:15;;;;;;;;;;;;;;;5.36;61.53;100218.81;4122901;28;20029;-65
2023/03/27 02:17:17;;;;;;;;;;;;;;;5.37;61.45;100220.47;4122480;28;20036;-65
2023/03/27 02:19:20;;;;;;;;;;;;;;;5.36;61.53;100221.47;4128776;28;20004;-66
2023/03/27 02:21:24;;;;;;;;;;;;;;;5.39;61.32;100225.66;4144514;28;20012;-63
2023/03/27 02:23:26;;;;;;;;;;;;;;;5.36;61.27;100234.88;4120737;28;20021;-64
2023/03/27 02:25:30;;;;;;;;;;;;;;;5.37;61.17;100231.16;4122651;28;20032;-65
2023/03/27 02:27:33;;;;;;;;;;;;;;;5.39;60.98;100244.41;4120763;28;20020;-65
2023/03/27 02:29:39;;;;;;;;;;;;;;;5.37;60.87;100244.56;4122312;28;20021;-65
2023/03/27 02:31:46;;;;;;;;;;;;;;;5.36;60.89;100248.25;4146655;28;20688;-65
2023/03/27 02:33:56;;;;;;;;;;;;;;;5.36;60.81;100256.28;4144064;28;20024;-66
2023/03/27 02:36:01;;;;;;;;;;;;;;;5.33;60.55;100259.28;4144592;28;20020;-66
2023/03/27 02:38:07;;;;;;;;;;;;;;;5.32;60.41;100262.09;4122131;28;20021;-65
2023/03/27 02:40:17;;;;;;;;;;;;;;;5.30;60.15;100266.75;4121159;28;20025;-65
2023/03/27 02:42:21;;;;;;;;;;;;;;;5.29;60.04;100279.31;4127843;28;20017;-65
2023/03/27 02:44:35;;;;;;;;;;;;;;;5.27;59.70;100283.16;4127688;28;20024;-66
2023/03/27 02:46:42;;;;;;;;;;;;;;;5.22;59.79;100276.41;4145095;28;20008;-65
2023/03/27 02:48:45;;;;;;;;;;;;;;;5.15;59.74;100282.53;4138307;28;20020;-65
2023/03/27 02:50:51;;;;;;;;;;;;;;;5.13;59.88;100289.88;4138272;28;19936;-65
2023/03/27 02:52:54;;;;;;;;;;;;;;;5.12;60.27;100288.19;4137925;28;20044;-65
2023/03/27 02:55:03;;;;;;;;;;;;;;;5.11;60.05;100294.53;4138370;28;20040;-65
2023/03/27 02:57:08;;;;;;;;;;;;;;;5.07;60.40;100301.22;4144164;28;20105;-64
2023/03/27 02:59:34;;;;;;;;;;;;;;;5.00;60.40;100299.13;4138643;28;20447;-65
2023/03/27 03:01:37;;;;;;;;;;;;;;;4.98;60.16;100311.81;4143821;28;19968;-65
2023/03/27 03:04:01;;;;;;;;;;;;;;;4.96;60.10;100313.81;4138037;28;20032;-63
2023/03/27 03:06:28;;;;;;;;;;;;;;;4.97;60.15;100312.81;4142746;28;20025;-65
2023/03/27 03:08:36;;;;;;;;;;;;;;;4.97;60.68;100317.31;4144221;28;20020;-64
2023/03/27 03:10:42;;;;;;;;;;;;;;;4.96;60.38;100323.69;4136268;28;20024;-64
2023/03/27 03:12:45;;;;;;;;;;;;;;;4.97;60.48;100320.84;4121622;28;20352;-64
2023/03/27 03:14:47;;;;;;;;;;;;;;;4.92;60.20;100312.44;4120291;28;20029;-65
2023/03/27 03:16:50;;;;;;;;;;;;;;;4.97;59.85;100323.53;4135906;28;20134;-65
2023/03/27 03:18:52;;;;;;;;;;;;;;;4.98;59.27;100333.22;4121839;28;20365;-64
2023/03/27 03:20:55;;;;;;;;;;;;;;;4.96;59.16;100332.53;4120451;28;20016;-64
2023/03/27 03:22:57;;;;;;;;;;;;;;;4.94;59.13;100334.53;4120760;28;20079;-64
2023/03/27 03:24:59;;;;;;;;;;;;;;;4.88;58.55;100345.84;4120163;28;20021;-65
2023/03/27 03:27:04;;;;;;;;;;;;;;;4.87;58.54;100347.69;4127471;28;20028;-65
2023/03/27 03:29:13;;;;;;;;;;;;;;;4.88;58.50;100353.84;4127725;28;20020;-64
2023/03/27 03:31:21;;;;;;;;;;;;;;;4.91;58.58;100355.41;4135276;28;20040;-65
2023/03/27 03:33:28;;;;;;;;;;;;;;;4.92;57.89;100357.94;4143974;28;20486;-63
2023/03/27 03:35:33;;;;;;;;;;;;;;;4.93;57.72;100361.44;4121631;28;20024;-64
2023/03/27 03:37:38;;;;;;;;;;;;;;;4.87;57.53;100374.44;4118658;28;20025;-65
2023/03/27 03:39:42;;;;;;;;;;;;;;;4.80;57.29;100377.84;4136452;28;20017;-65
2023/03/27 03:41:44;;;;;;;;;;;;;;;4.76;57.63;100381.81;4151192;28;20015;-64
2023/03/27 03:43:46;;;;;;;;;;;;;;;4.71;57.96;100389.44;4121261;28;19972;-64
2023/03/27 03:45:48;;;;;;;;;;;;;;;4.70;57.87;100388.56;4120280;28;20715;-65
2023/03/27 03:47:52;;;;;;;;;;;;;;;4.66;57.58;100392.56;4119954;28;20519;-65
2023/03/27 03:49:54;;;;;;;;;;;;;;;4.61;57.37;100394.84;4121632;28;20312;-65
2023/03/27 03:51:56;;;;;;;;;;;;;;;4.58;57.51;100395.13;4126374;28;20373;-64
2023/03/27 03:54:00;;;;;;;;;;;;;;;4.54;57.34;100391.88;4121520;28;20052;-64
2023/03/27 03:56:03;;;;;;;;;;;;;;;4.53;57.63;100402.72;4127049;28;20016;-63
2023/03/27 03:58:08;;;;;;;;;;;;;;;4.51;57.76;100406.41;4119901;28;20036;-64
2023/03/27 04:00:12;;;;;;;;;;;;;;;4.53;57.69;100402.72;4126963;28;20028;-64
2023/03/27 04:02:30;;;;;;;;;;;;;;;4.54;57.58;100405.25;4120925;28;20368;-66
2023/03/27 04:04:45;;;;;;;;;;;;;;;4.49;57.80;100408.38;4120345;28;19957;-64
2023/03/27 04:06:51;;;;;;;;;;;;;;;4.51;57.94;100417.09;4133372;28;20029;-65
2023/03/27 04:08:53;;;;;;;;;;;;;;;4.50;57.90;100412.75;4134800;28;20024;-64
2023/03/27 04:11:29;;;;;;;;;;;;;;;4.49;57.63;100415.56;4108118;28;20017;-65
2023/03/27 04:14:00;;;;;;;;;;;;;;;4.49;57.86;100419.06;4120432;28;20435;-63
2023/03/27 04:16:09;;;;;;;;;;;;;;;4.49;57.96;100427.09;4120256;28;20021;-65
2023/03/27 04:18:18;;;;;;;;;;;;;;;4.50;57.87;100428.78;4127336;28;20020;-65
2023/03/27 04:20:20;;;;;;;;;;;;;;;4.49;58.28;100432.44;4143130;28;20016;-65
2023/03/27 04:22:22;;;;;;;;;;;;;;;4.48;58.07;100425.41;4121344;28;20025;-65
2023/03/27 04:24:24;;;;;;;;;;;;;;;4.51;57.91;100432.28;4152751;28;20495;-65
2023/03/27 04:26:29;;;;;;;;;;;;;;;4.48;57.85;100437.94;4119684;28;20508;-65
2023/03/27 04:29:09;;;;;;;;;;;;;;;4.45;58.16;100436.41;4121983;28;20052;-65
2023/03/27 04:31:45;;;;;;;;;;;;;;;4.40;58.11;100437.81;4121116;28;20013;-65
2023/03/27 04:34:08;;;;;;;;;;;;;;;4.37;58.17;100441.59;4094545;28;20016;-64
2023/03/27 04:36:41;;;;;;;;;;;;;;;4.40;58.20;100445.84;4142332;28;20000;-65
2023/03/27 04:38:48;;;;;;;;;;;;;;;4.43;58.02;100445.56;4151535;28;20016;-65
2023/03/27 04:40:51;;;;;;;;;;;;;;;4.46;58.05;100455.97;4133976;28;20052;-66
2023/03/27 04:42:55;;;;;;;;;;;;;;;4.45;57.99;100447.09;4150764;28;20380;-65
2023/03/27 04:44:57;;;;;;;;;;;;;;;4.43;57.77;100457.06;4142967;28;20024;-66
2023/03/27 04:47:00;;;;;;;;;;;;;;;4.43;57.78;100466.94;4119832;28;20397;-64
2023/03/27 04:49:04;;;;;;;;;;;;;;;4.42;57.75;100467.91;4142909;28;20015;-65
2023/03/27 04:51:19;;;;;;;;;;;;;;;4.37;57.95;100467.50;4119530;28;20742;-65
2023/03/27 04:53:22;;;;;;;;;;;;;;;4.33;58.24;100470.47;4119201;28;20021;-64
2023/03/27 04:55:25;;;;;;;;;;;;;;;4.35;58.35;100473.00;4119252;28;20367;-64
2023/03/27 04:57:29;;;;;;;;;;;;;;;4.36;58.32;100482.72;4118581;28;20742;-65
2023/03/27 04:59:36;;;;;;;;;;;;;;;4.36;58.67;100493.41;4126029;28;20025;-65
2023/03/27 05:01:57;;;;;;;;;;;;;;;4.32;58.69;100490.16;4122061;28;20014;-65
2023/03/27 05:04:07;;;;;;;;;;;;;;;4.32;58.75;100494.69;4154140;28;20028;-64
2023/03/27 05:06:32;;;;;;;;;;;;;;;4.32;58.96;100500.03;4123318;28;20743;-65
2023/03/27 05:08:36;;;;;;;;;;;;;;;4.30;58.77;100499.34;4135534;28;19949;-64
2023/03/27 05:10:38;;;;;;;;;;;;;;;4.31;58.55;100511.69;4123011;28;20013;-64
2023/03/27 05:12:42;;;;;;;;;;;;;;;4.28;58.33;100510.16;4135674;28;20028;-64
2023/03/27 05:14:47;;;;;;;;;;;;;;;4.29;58.59;100517.19;4122045;28;20020;-64
2023/03/27 05:17:05;;;;;;;;;;;;;;;4.31;58.61;100509.03;4128381;28;20036;-65
2023/03/27 05:19:07;;;;;;;;;;;;;;;4.34;58.43;100516.75;4138754;28;20040;-64
2023/03/27 05:21:16;;;;;;;;;;;;;;;4.38;58.82;100520.84;4155213;28;20039;-65
2023/03/27 05:23:19;;;;;;;;;;;;;;;4.39;58.95;100529.72;4145362;28;20020;-66
2023/03/27 05:25:21;;;;;;;;;;;;;;;4.43;58.99;100518.59;4145948;28;20028;-65
2023/03/27 05:27:23;;;;;;;;;;;;;;;4.45;58.84;100523.78;4129244;28;20444;-63
2023/03/27 05:29:29;;;;;;;;;;;;;;;4.45;58.63;100532.69;4142831;28;20397;-65
2023/03/27 05:31:38;;;;;;;;;;;;;;;4.45;58.56;100534.50;4145613;28;20514;-65
2023/03/27 05:34:04;;;;;;;;;;;;;;;4.46;58.68;100537.03;4145976;28;20008;-64
2023/03/27 05:36:08;;;;;;;;;;;;;;;4.46;58.94;100538.88;4144454;28;20032;-65
2023/03/27 05:38:11;;;;;;;;;;;;;;;4.45;58.58;100546.06;4129235;28;20471;-65
2023/03/27 05:40:23;;;;;;;;;;;;;;;4.44;58.63;100547.03;4129759;28;20037;-64
2023/03/27 05:42:25;;;;;;;;;;;;;;;4.44;58.95;100541.69;4128570;28;20016;-65
2023/03/27 05:44:27;;;;;;;;;;;;;;;4.43;58.97;100553.34;4145402;28;20577;-65
2023/03/27 05:46:30;;;;;;;;;;;;;;;4.44;59.05;100551.53;4130023;28;20016;-65
2023/03/27 05:48:40;;;;;;;;;;;;;;;4.45;59.33;100546.06;4137179;28;20021;-64
2023/03/27 05:50:42;;;;;;;;;;;;;;;4.42;58.87;100553.50;4145826;28;19929;-65
2023/03/27 05:52:55;;;;;;;;;;;;;;;4.41;58.81;100563.34;4144795;28;20044;-64
2023/03/27 05:55:05;;;;;;;;;;;;;;;4.40;59.40;100567.00;4145629;28;20024;-64
2023/03/27 05:57:09;;;;;;;;;;;;;;;4.41;60.05;100568.69;4144361;28;20016;-65
2023/03/27 05:59:13;;;;;;;;;;;;;;;4.40;60.38;100572.34;4129709;28;20017;-65
2023/03/27 06:01:16;;;;;;;;;;;;;;;4.40;60.24;100579.53;4130112;28;20546;-64
2023/03/27 06:03:19;;;;;;;;;;;;;;;4.38;60.35;100581.53;4128683;28;20009;-63
2023/03/27 06:05:39;;;;;;;;;;;;;;;4.36;60.18;100587.00;4130538;28;20033;-65
2023/03/27 06:07:42;;;;;;;;;;;;;;;4.30;60.58;100599.09;4133729;28;20005;-65
2023/03/27 06:09:44;;;;;;;;;;;;;;;4.32;60.72;100599.78;4136855;28;20028;-64
2023/03/27 06:12:24;;;;;;;;;;;;;;;4.34;60.65;100596.97;4116498;28;20017;-65
2023/03/27 06:14:33;;;;;;;;;;;;;;;4.37;60.58;100611.91;4128490;28;20336;-65
2023/03/27 06:16:55;;;;;;;;;;;;;;;4.39;60.62;100607.25;4129409;28;20049;-64
2023/03/27 06:19:22;;;;;;;;;;;;;;;4.42;60.33;100610.50;4145335;28;20020;-65
2023/03/27 06:21:27;;;;;;;;;;;;;;;4.49;60.15;100616.13;4128922;28;20421;-65
2023/03/27 06:23:36;;;;;;;;;;;;;;;4.54;60.12;100616.56;4128895;28;20004;-66
2023/03/27 06:25:46;;;;;;;;;;;;;;;4.55;59.76;100615.56;4128575;28;20046;-66
2023/03/27 06:27:49;;;;;;;;;;;;;;;4.57;59.59;100618.13;4122984;28;20517;-65
2023/03/27 06:29:51;;;;;;;;;;;;;;;4.59;59.29;100619.66;4121521;28;20401;-64
2023/03/27 06:31:56;;;;;;;;;;;;;;;4.63;59.01;100621.06;4135823;28;20016;-65
2023/03/27 06:34:02;;;;;;;;;;;;;;;4.68;58.67;100620.63;4129086;28;19934;-64
2023/03/27 06:36:17;;;;;;;;;;;;;;;4.69;58.83;100631.19;4145196;28;20016;-65
2023/03/27 06:38:23;;;;;;;;;;;;;;;4.73;58.84;100628.25;4120465;28;20024;-65
2023/03/27 06:40:26;;;;;;;;;;;;;;;4.77;58.17;100625.13;4121343;28;20024;-65
2023/03/27 06:42:30;;;;;;;;;;;;;;;4.77;57.35;100638.53;4120853;28;20483;-65
2023/03/27 06:44:55;;;;;;;;;;;;;;;4.76;56.68;100638.66;4121689;28;20398;-65
2023/03/27 06:47:20;;;;;;;;;;;;;;;4.76;56.56;100633.31;4112916;28;20024;-65
2023/03/27 06:49:46;;;;;;;;;;;;;;;4.78;56.39;100644.69;4122820;28;20030;-65
2023/03/27 06:51:52;;;;;;;;;;;;;;;4.80;56.10;100645.44;4128022;28;20029;-64
2023/03/27 06:53:58;;;;;;;;;;;;;;;4.81;56.09;100653.31;4128447;28;20853;-65
2023/03/27 06:56:00;;;;;;;;;;;;;;;4.81;55.99;100652.44;4128483;28;19988;-64
2023/03/27 06:58:13;;;;;;;;;;;;;;;4.83;55.81;100653.19;4120890;28;20479;-65
2023/03/27 07:00:18;;;;;;;;;;;;;;;4.86;55.98;100663.59;4145204;28;19967;-65
2023/03/27 07:02:40;;;;;;;;;;;;;;;4.87;55.90;100666.13;4122277;28;20024;-66
2023/03/27 07:05:07;;;;;;;;;;;;;;;4.92;55.84;100678.22;4121523;28;20028;-66
2023/03/27 07:07:12;;;;;;;;;;;;;;;4.90;55.79;100658.78;4143679;28;20016;-66
2023/03/27 07:09:18;;;;;;;;;;;;;;;4.90;55.75;100673.00;4144172;28;20016;-65
2023/03/27 07:11:31;;;;;;;;;;;;;;;4.93;55.63;100679.91;4128319;28;20020;-65
2023/03/27 07:13:37;;;;;;;;;;;;;;;4.93;55.46;100669.22;4128338;28;20352;-65
2023/03/27 07:15:42;;;;;;;;;;;;;;;4.94;55.52;100678.94;4128088;28;20041;-65
2023/03/27 07:17:44;;;;;;;;;;;;;;;4.95;55.61;100677.94;4137166;28;19929;-65
2023/03/27 07:19:46;;;;;;;;;;;;;;;4.97;55.62;100678.63;4122303;28;20036;-64
2023/03/27 07:21:49;;;;;;;;;;;;;;;4.99;55.50;100676.69;4120363;28;20022;-66
2023/03/27 07:23:52;;;;;;;;;;;;;;;5.02;55.43;100687.09;4151767;28;20514;-65
2023/03/27 07:26:06;;;;;;;;;;;;;;;5.04;55.49;100680.59;4112987;28;20452;-65
2023/03/27 07:28:26;;;;;;;;;;;;;;;5.10;55.53;100678.38;4122066;28;21315;-65
2023/03/27 07:30:29;;;;;;;;;;;;;;;5.12;55.42;100685.25;4144121;28;20016;-65
2023/03/27 07:32:33;;;;;;;;;;;;;;;5.14;55.50;100677.06;4127928;28;20024;-64
2023/03/27 07:34:35;;;;;;;;;;;;;;;5.16;55.95;100692.00;4120506;28;20017;-65
2023/03/27 07:36:37;;;;;;;;;;;;;;;5.18;55.61;100683.84;4121872;28;20495;-64
2023/03/27 07:38:41;;;;;;;;;;;;;;;5.17;55.24;100685.69;4120745;28;20407;-66
2023/03/27 07:41:04;;;;;;;;;;;;;;;5.21;55.37;100684.38;4136088;28;20466;-65
2023/03/27 07:43:43;;;;;;;;;;;;;;;5.29;55.39;100689.03;4094322;29;20077;-64
2023/03/27 07:45:45;;;;;;;;;;;;;;;5.34;55.20;100681.41;4116887;28;20030;-65
2023/03/27 07:47:48;;;;;;;;;;;;;;;5.38;55.24;100688.16;4127432;28;20024;-66
2023/03/27 07:49:50;;;;;;;;;;;;;;;5.42;54.80;100688.72;4136909;28;20356;-65
2023/03/27 07:51:57;;;;;;;;;;;;;;;5.43;54.08;100690.41;4126970;28;20057;-64
2023/03/27 07:54:03;;;;;;;;;;;;;;;5.44;54.05;100697.47;4119164;28;20017;-65
2023/03/27 07:56:09;;;;;;;;;;;;;;;5.47;54.10;100689.16;4120532;28;20053;-65
2023/03/27 07:58:11;;;;;;;;;;;;;;;5.49;53.34;100694.34;4135993;28;20012;-65
2023/03/27 08:00:17;;;;;;;;;;;;;;;5.47;52.97;100689.16;4121002;28;20017;-65
2023/03/27 08:02:28;;;;;;;;;;;;;;;5.45;53.24;100685.75;4126351;28;20456;-65
2023/03/27 08:04:30;;;;;;;;;;;;;;;5.47;53.24;100694.50;4122128;28;20024;-65
2023/03/27 08:06:39;;;;;;;;;;;;;;;5.48;52.95;100695.34;4119870;28;20052;-65
2023/03/27 08:08:49;;;;;;;;;;;;;;;5.48;53.43;100696.16;4127827;28;20017;-65
2023/03/27 08:10:53;;;;;;;;;;;;;;;5.49;53.62;100702.41;4135822;28;20033;-67
2023/03/27 08:12:55;;;;;;;;;;;;;;;5.52;53.77;100692.22;4140935;28;20029;-67
2023/03/27 08:14:57;;;;;;;;;;;;;;;5.53;53.33;100695.72;4126226;28;20024;-67
2023/03/27 08:17:03;;;;;;;;;;;;;;;5.51;53.33;100698.56;4126833;28;20552;-65
2023/03/27 08:19:06;;;;;;;;;;;;;;;5.55;53.73;100701.81;4119889;28;20029;-67
2023/03/27 08:21:12;;;;;;;;;;;;;;;5.63;53.79;100695.69;4127108;28;20032;-66
2023/03/27 08:23:15;;;;;;;;;;;;;;;5.67;53.22;100700.63;4127356;28;20021;-65
2023/03/27 08:25:35;;;;;;;;;;;;;;;5.68;52.89;100702.31;4128960;28;20024;-64
2023/03/27 08:27:43;;;;;;;;;;;;;;;5.71;52.71;100707.38;4133801;28;20008;-66
2023/03/27 08:29:46;;;;;;;;;;;;;;;5.72;52.81;100709.09;4143737;28;20036;-64
2023/03/27 08:31:48;;;;;;;;;;;;;;;5.70;53.09;100716.41;4141232;28;20016;-64
2023/03/27 08:33:52;;;;;;;;;;;;;;;5.71;53.02;100723.47;4136028;28;20008;-64
2023/03/27 08:35:59;;;;;;;;;;;;;;;5.71;52.95;100722.63;4120936;28;20064;-64
2023/03/27 08:38:01;;;;;;;;;;;;;;;5.71;52.83;100723.47;4130420;28;20025;-65
2023/03/27 08:40:25;;;;;;;;;;;;;;;5.74;52.17;100725.84;4124776;28;20017;-64
2023/03/27 08:42:38;;;;;;;;;;;;;;;5.81;52.34;100736.84;4130195;28;19937;-65
2023/03/27 08:44:40;;;;;;;;;;;;;;;5.91;52.37;100742.19;4124824;28;20025;-64
2023/03/27 08:46:47;;;;;;;;;;;;;;;6.02;51.97;100731.31;4123098;28;20013;-64
2023/03/27 08:48:52;;;;;;;;;;;;;;;6.16;52.13;100729.09;4130638;28;20021;-65
2023/03/27 08:50:55;;;;;;;;;;;;;;;6.30;52.96;100729.47;4123388;28;20012;-65
2023/03/27 08:52:58;;;;;;;;;;;;;;;6.47;52.87;100716.22;4123693;28;20060;-64
2023/03/27 08:55:06;;;;;;;;;;;;;;;6.58;52.42;100731.28;4123200;28;20020;-64
2023/03/27 08:57:18;;;;;;;;;;;;;;;6.64;51.84;100741.41;4129612;28;20016;-66
2023/03/27 08:59:23;;;;;;;;;;;;;;;6.66;51.45;100736.72;4139217;28;20043;-66
2023/03/27 09:01:29;;;;;;;;;;;;;;;6.72;51.74;100744.16;4130055;28;20016;-65
2023/03/27 09:03:37;;;;;;;;;;;;;;;6.76;51.33;100739.38;4139040;28;19961;-65
2023/03/27 09:05:42;;;;;;;;;;;;;;;6.77;50.43;100746.41;4130606;28;20407;-65
2023/03/27 09:07:46;;;;;;;;;;;;;;;6.73;50.03;100739.66;4124108;28;20013;-65
2023/03/27 09:10:09;;;;;;;;;;;;;;;6.71;50.53;100750.56;4124214;28;20029;-65
2023/03/27 09:12:20;;;;;;;;;;;;;;;6.68;49.87;100751.69;4129999;28;20085;-65
2023/03/27 09:14:25;;;;;;;;;;;;;;;6.70;49.45;100758.75;4123213;28;20020;-65
2023/03/27 09:16:30;;;;;;;;;;;;;;;6.68;49.54;100759.75;4128557;28;20025;-65
2023/03/27 09:18:35;;;;;;;;;;;;;;;6.71;49.92;100763.97;4155500;28;20498;-65
2023/03/27 09:20:45;;;;;;;;;;;;;;;6.70;49.96;100762.28;4155249;28;20043;-65
2023/03/27 09:22:49;;;;;;;;;;;;;;;6.73;49.35;100763.81;4121926;28;20021;-65
2023/03/27 09:25:19;;;;;;;;;;;;;;;6.83;50.31;100768.13;4126689;28;19961;-65
2023/03/27 09:27:22;;;;;;;;;;;;;;;6.90;50.21;100772.91;4123680;28;20021;-65
2023/03/27 09:29:52;;;;;;;;;;;;;;;6.87;48.58;100771.34;4123942;28;20448;-64
2023/03/27 09:32:16;;;;;;;;;;;;;;;6.87;48.73;100768.66;4129092;28;20021;-65
2023/03/27 09:34:21;;;;;;;;;;;;;;;6.94;50.44;100760.84;4129747;28;20502;-64
2023/03/27 09:36:25;;;;;;;;;;;;;;;7.01;50.02;100770.81;4129095;28;20037;-66
2023/03/27 09:38:29;;;;;;;;;;;;;;;7.02;48.90;100769.84;4146349;28;20032;-66
2023/03/27 09:40:32;;;;;;;;;;;;;;;7.08;49.70;100767.53;4146069;28;20023;-64
2023/03/27 09:42:36;;;;;;;;;;;;;;;7.09;49.67;100772.75;4145667;28;20012;-65
2023/03/27 09:44:40;;;;;;;;;;;;;;;7.14;49.50;100774.97;4146085;28;20654;-65
2023/03/27 09:46:43;;;;;;;;;;;;;;;7.17;50.77;100771.97;4128464;28;19929;-66
2023/03/27 09:48:49;;;;;;;;;;;;;;;7.22;51.33;100775.03;4128591;28;20024;-64
2023/03/27 09:50:52;;;;;;;;;;;;;;;7.28;51.10;100784.31;4129312;28;20021;-65
2023/03/27 09:53:10;;;;;;;;;;;;;;;7.24;48.24;100775.75;4159801;28;20023;-66
2023/03/27 09:55:23;;;;;;;;;;;;;;;7.20;48.24;100785.94;4161915;28;20048;-65
2023/03/27 09:57:27;;;;;;;;;;;;;;;7.20;48.37;100775.19;4138188;28;20597;-65
2023/03/27 09:59:31;;;;;;;;;;;;;;;7.23;49.25;100787.47;4162455;28;20501;-65
2023/03/27 10:01:45;;;;;;;;;;;;;;;7.29;50.52;100789.53;4137646;28;20028;-66
2023/03/27 10:03:51;;;;;;;;;;;;;;;7.28;48.47;100781.63;4153630;28;20016;-65
2023/03/27 10:06:05;;;;;;;;;;;;;;;7.27;48.94;100785.31;4153419;28;20012;-65
2023/03/27 10:08:25;;;;;;;;;;;;;;;7.29;48.01;100792.22;4137623;28;19933;-65
2023/03/27 10:10:47;;;;;;;;;;;;;;;7.31;47.88;100786.72;4139370;28;20040;-65
2023/03/27 10:13:16;;;;;;;;;;;;;;;7.33;50.84;100792.75;4135244;28;20032;-65
2023/03/27 10:15:30;;;;;;;;;;;;;;;7.33;48.64;100785.53;4145545;28;20024;-66
2023/03/27 10:17:33;;;;;;;;;;;;;;;7.37;50.48;100780.72;4128258;28;20013;-65
2023/03/27 10:19:41;;;;;;;;;;;;;;;7.41;49.27;100792.81;4129130;28;20436;-66
2023/03/27 10:21:46;;;;;;;;;;;;;;;7.42;47.07;100780.25;4121145;28;20037;-65
2023/03/27 10:24:04;;;;;;;;;;;;;;;7.37;45.31;100803.03;4128766;28;20411;-65
2023/03/27 10:26:30;;;;;;;;;;;;;;;7.30;45.39;100798.44;4089814;28;20072;-65
2023/03/27 10:28:33;;;;;;;;;;;;;;;7.26;46.28;100800.59;4129351;28;20032;-65
2023/03/27 10:31:00;;;;;;;;;;;;;;;7.21;44.60;100806.44;4122318;28;20392;-65
2023/03/27 10:33:09;;;;;;;;;;;;;;;7.26;47.40;100821.22;4120315;28;20456;-65
2023/03/27 10:35:23;;;;;;;;;;;;;;;7.33;48.71;100812.41;4120211;28;20428;-65
2023/03/27 10:37:54;;;;;;;;;;;;;;;7.40;46.63;100810.78;4114494;28;20456;-65
2023/03/27 10:40:01;;;;;;;;;;;;;;;7.39;46.71;100811.78;4123004;28;20459;-65
2023/03/27 10:42:13;;;;;;;;;;;;;;;7.39;46.62;100819.84;4127173;28;20049;-65
2023/03/27 10:44:24;;;;;;;;;;;;;;;7.41;45.42;100814.31;4128875;28;20025;-63
2023/03/27 10:46:30;;;;;;;;;;;;;;;7.52;47.77;100815.91;4127894;28;20016;-65
2023/03/27 10:48:42;;;;;;;;;;;;;;;7.68;48.01;100816.06;4121460;28;20024;-65
2023/03/27 10:50:52;;;;;;;;;;;;;;;7.90;49.51;100819.25;4128621;28;20021;-65
2023/03/27 10:53:02;;;;;;;;;;;;;;;8.11;48.86;100819.72;4119684;28;20020;-66
2023/03/27 10:55:17;;;;;;;;;;;;;;;8.34;48.96;100826.38;4121323;28;20036;-66
2023/03/27 10:57:21;;;;;;;;;;;;;;;8.44;48.41;100822.59;4120654;28;19925;-65
2023/03/27 10:59:25;;;;;;;;;;;;;;;8.37;45.18;100820.69;4126949;28;20020;-65
2023/03/27 11:01:30;;;;;;;;;;;;;;;8.24;42.78;100819.28;4137022;28;20405;-66
2023/03/27 11:03:34;;;;;;;;;;;;;;;8.14;43.98;100818.56;4127604;28;20028;-65
2023/03/27 11:05:40;;;;;;;;;;;;;;;8.09;45.06;100820.88;4137612;28;20016;-64